Time;durP1;ratioP1;P1;durP2;ratioP2;P2;SDS_P1;SDS_P2;PMS_P1;PMS_P2;Temp;Humidity;BMP_temperature;BMP_pressure;BME280_temperature;BME280_humidity;BME280_pressure;Samples;Min_cycle;Max_cycle;Signal;HPM_P1;HPM_P2
2023/06/28 00:02:10;;;;;;;8.10;7.30;;;;;;;;;;9946003;28;20113;-50
2023/06/28 00:07:03;;;;;;;9.82;7.95;;;;;;;;;;9949101;28;20528;-52
2023/06/28 00:11:54;;;;;;;8.13;7.15;;;;;;;;;;9945971;28;20382;-53
2023/06/28 00:16:46;;;;;;;9.15;8.25;;;;;;;;;;9946264;28;20465;-53
2023/06/28 00:21:38;;;;;;;8.73;7.93;;;;;;;;;;9947768;28;20420;-51
2023/06/28 00:26:30;;;;;;;8.88;7.97;;;;;;;;;;9948137;28;20429;-53
2023/06/28 00:31:22;;;;;;;8.98;8.05;;;;;;;;;;9945759;28;20448;-52
2023/06/28 00:36:14;;;;;;;7.85;7.13;;;;;;;;;;9945519;28;20047;-53
2023/06/28 00:41:06;;;;;;;8.90;8.10;;;;;;;;;;9960230;28;20039;-50
2023/06/28 00:45:58;;;;;;;8.10;7.30;;;;;;;;;;9961315;28;20054;-53
2023/06/28 00:50:50;;;;;;;8.32;7.53;;;;;;;;;;9947257;28;20105;-51
2023/06/28 00:55:42;;;;;;;9.75;8.85;;;;;;;;;;9948261;28;20508;-52
2023/06/28 01:00:33;;;;;;;9.73;7.65;;;;;;;;;;9948097;28;20101;-51
2023/06/28 01:05:25;;;;;;;8.30;7.50;;;;;;;;;;9946727;28;20086;-51
2023/06/28 01:10:17;;;;;;;9.32;8.23;;;;;;;;;;9946267;28;20047;-52
2023/06/28 01:15:10;;;;;;;7.95;7.22;;;;;;;;;;9946158;28;20396;-52
2023/06/28 01:20:03;;;;;;;8.07;7.38;;;;;;;;;;9942989;28;20049;-52
2023/06/28 01:24:56;;;;;;;7.75;6.95;;;;;;;;;;9946437;28;20114;-49
2023/06/28 01:29:55;;;;;;;8.68;7.93;;;;;;;;;;9947635;28;20039;-52
2023/06/28 01:34:47;;;;;;;8.07;7.38;;;;;;;;;;9946493;28;20047;-52
2023/06/28 01:39:39;;;;;;;8.27;7.47;;;;;;;;;;9945072;28;20038;-52
2023/06/28 01:44:31;;;;;;;8.45;7.30;;;;;;;;;;9945632;28;20424;-51
2023/06/28 01:49:25;;;;;;;8.60;7.65;;;;;;;;;;9929161;28;20324;-51
2023/06/28 01:54:18;;;;;;;8.63;7.57;;;;;;;;;;9944653;28;20321;-55
2023/06/28 01:59:10;;;;;;;7.10;6.40;;;;;;;;;;9944987;28;20046;-52
2023/06/28 02:04:02;;;;;;;6.72;6.03;;;;;;;;;;9906754;28;20118;-51
2023/06/28 02:08:54;;;;;;;7.07;6.47;;;;;;;;;;9908775;28;20055;-52
2023/06/28 02:13:45;;;;;;;8.43;6.35;;;;;;;;;;9943506;28;20416;-51
2023/06/28 02:18:38;;;;;;;8.75;5.85;;;;;;;;;;9951683;28;20051;-52
2023/06/28 02:23:30;;;;;;;7.38;5.63;;;;;;;;;;9951666;28;20117;-51
2023/06/28 02:28:22;;;;;;;7.82;6.97;;;;;;;;;;9950991;28;20393;-48
2023/06/28 02:33:13;;;;;;;6.13;5.53;;;;;;;;;;9966089;28;20146;-52
2023/06/28 02:38:07;;;;;;;6.85;6.13;;;;;;;;;;9966571;28;20097;-52
2023/06/28 02:43:01;;;;;;;7.55;6.85;;;;;;;;;;9951301;28;20055;-48
2023/06/28 02:47:54;;;;;;;8.52;7.35;;;;;;;;;;9966835;28;20082;-48
2023/06/28 02:52:46;;;;;;;7.20;6.50;;;;;;;;;;9950534;28;20070;-46
2023/06/28 02:57:38;;;;;;;6.93;6.22;;;;;;;;;;9965414;28;20077;-49
2023/06/28 03:02:34;;;;;;;7.40;6.30;;;;;;;;;;9948965;28;20413;-52
2023/06/28 03:07:26;;;;;;;7.95;7.15;;;;;;;;;;9965268;28;20051;-54
2023/06/28 03:12:19;;;;;;;7.05;6.35;;;;;;;;;;9981293;28;20043;-52
2023/06/28 03:17:11;;;;;;;6.53;5.93;;;;;;;;;;9948171;28;20046;-53
2023/06/28 03:22:04;;;;;;;9.43;7.25;;;;;;;;;;9947255;28;20079;-51
2023/06/28 03:26:56;;;;;;;7.35;6.75;;;;;;;;;;9948921;28;20054;-53
2023/06/28 03:31:48;;;;;;;6.47;5.88;;;;;;;;;;9964430;28;20039;-54
2023/06/28 03:36:44;;;;;;;8.85;7.93;;;;;;;;;;9963367;28;20081;-52
2023/06/28 03:41:54;;;;;;;8.30;6.60;;;;;;;;;;9947854;28;20101;-46
2023/06/28 03:46:46;;;;;;;8.05;6.97;;;;;;;;;;9964376;28;20370;-49
2023/06/28 03:51:38;;;;;;;6.18;5.57;;;;;;;;;;9948153;28;20055;-51
2023/06/28 03:56:30;;;;;;;7.55;6.68;;;;;;;;;;9932422;28;20050;-52
2023/06/28 04:01:22;;;;;;;8.52;5.75;;;;;;;;;;9924463;28;20043;-50
2023/06/28 04:06:14;;;;;;;7.00;6.00;;;;;;;;;;9948469;28;20043;-52
2023/06/28 04:11:06;;;;;;;7.10;6.40;;;;;;;;;;9948022;28;20458;-52
2023/06/28 04:15:57;;;;;;;7.60;6.90;;;;;;;;;;9947993;28;20101;-50
2023/06/28 04:20:50;;;;;;;6.25;5.65;;;;;;;;;;9945297;28;20066;-51
2023/06/28 04:25:41;;;;;;;6.75;6.13;;;;;;;;;;9946757;28;20508;-51
2023/06/28 04:30:33;;;;;;;8.13;6.38;;;;;;;;;;9948088;28;20047;-52
2023/06/28 04:35:25;;;;;;;6.05;5.55;;;;;;;;;;9945462;28;20105;-49
2023/06/28 04:40:17;;;;;;;6.78;5.93;;;;;;;;;;9947286;28;20042;-48
2023/06/28 04:45:11;;;;;;;6.28;5.20;;;;;;;;;;9943010;28;20844;-48
2023/06/28 04:50:04;;;;;;;6.32;5.72;;;;;;;;;;9911185;28;20057;-50
2023/06/28 04:54:56;;;;;;;6.25;5.65;;;;;;;;;;9946119;28;20065;-52
2023/06/28 04:59:51;;;;;;;7.25;6.53;;;;;;;;;;9945130;28;20041;-51
2023/06/28 05:04:43;;;;;;;5.68;5.18;;;;;;;;;;9946096;28;20421;-50
2023/06/28 05:09:35;;;;;;;6.60;5.90;;;;;;;;;;9947199;28;20054;-50
2023/06/28 05:14:29;;;;;;;6.68;5.93;;;;;;;;;;9946955;28;20089;-49
2023/06/28 05:19:24;;;;;;;6.32;5.72;;;;;;;;;;9944995;28;20046;-49
2023/06/28 05:24:17;;;;;;;6.80;6.13;;;;;;;;;;9943097;28;20055;-49
2023/06/28 05:29:09;;;;;;;6.82;6.20;;;;;;;;;;9943671;28;20807;-53
2023/06/28 05:34:02;;;;;;;8.00;6.53;;;;;;;;;;9945825;28;20047;-50
2023/06/28 05:38:55;;;;;;;7.90;6.30;;;;;;;;;;9947064;28;20073;-48
2023/06/28 05:43:47;;;;;;;6.07;5.47;;;;;;;;;;9945115;28;20461;-49
2023/06/28 05:48:39;;;;;;;5.63;5.07;;;;;;;;;;9945544;28;20072;-50
2023/06/28 05:53:31;;;;;;;6.47;5.88;;;;;;;;;;9951772;28;20046;-47
2023/06/28 05:58:23;;;;;;;7.47;5.80;;;;;;;;;;9953604;28;20113;-55
2023/06/28 06:03:15;;;;;;;6.63;5.97;;;;;;;;;;9950012;28;20090;-48
2023/06/28 06:08:06;;;;;;;6.22;5.55;;;;;;;;;;9952954;28;20053;-48
2023/06/28 06:12:58;;;;;;;5.80;5.30;;;;;;;;;;9951625;28;20385;-48
2023/06/28 06:17:50;;;;;;;6.18;5.57;;;;;;;;;;9944692;28;20355;-51
2023/06/28 06:22:43;;;;;;;6.07;5.55;;;;;;;;;;9950114;28;20053;-55
2023/06/28 06:27:35;;;;;;;7.05;6.35;;;;;;;;;;9937348;28;20039;-54
2023/06/28 06:32:27;;;;;;;5.97;5.22;;;;;;;;;;9933709;28;20051;-54
2023/06/28 06:37:20;;;;;;;6.00;5.40;;;;;;;;;;9948790;28;20070;-55
2023/06/28 06:42:12;;;;;;;6.53;5.88;;;;;;;;;;9918957;28;20047;-55
2023/06/28 06:47:05;;;;;;;7.25;6.22;;;;;;;;;;9937347;28;20053;-55
2023/06/28 06:51:57;;;;;;;7.18;5.90;;;;;;;;;;9949092;28;20051;-55
2023/06/28 06:56:49;;;;;;;6.25;5.65;;;;;;;;;;9952290;28;20054;-53
2023/06/28 07:01:40;;;;;;;5.68;5.18;;;;;;;;;;9947353;28;20421;-55
2023/06/28 07:06:32;;;;;;;6.18;5.22;;;;;;;;;;9948627;28;20057;-54
2023/06/28 07:11:25;;;;;;;5.93;5.38;;;;;;;;;;9939723;28;20138;-52
2023/06/28 07:16:17;;;;;;;5.93;5.30;;;;;;;;;;9935121;28;20055;-54
2023/06/28 07:21:09;;;;;;;6.13;5.53;;;;;;;;;;9924654;28;20074;-54
2023/06/28 07:26:01;;;;;;;5.72;5.22;;;;;;;;;;9931253;28;20475;-55
2023/06/28 07:30:54;;;;;;;5.57;5.05;;;;;;;;;;9950187;28;20038;-53
2023/06/28 07:35:46;;;;;;;5.70;5.20;;;;;;;;;;9947030;28;20051;-55
2023/06/28 07:40:38;;;;;;;9.85;6.00;;;;;;;;;;9951268;28;20377;-55
2023/06/28 07:45:30;;;;;;;5.35;4.82;;;;;;;;;;9948616;28;20388;-54
2023/06/28 07:50:23;;;;;;;5.85;5.15;;;;;;;;;;9947733;28;20087;-55
2023/06/28 07:55:15;;;;;;;5.47;4.97;;;;;;;;;;9949462;28;20425;-55
2023/06/28 08:00:09;;;;;;;6.65;5.00;;;;;;;;;;9942752;28;20602;-55
2023/06/28 08:05:01;;;;;;;6.22;5.63;;;;;;;;;;9940436;28;20063;-55
2023/06/28 08:09:53;;;;;;;5.30;4.80;;;;;;;;;;9943414;28;20050;-54
2023/06/28 08:14:45;;;;;;;5.28;4.78;;;;;;;;;;9947610;28;20440;-54
2023/06/28 08:19:37;;;;;;;6.22;5.63;;;;;;;;;;9945501;28;20099;-52
2023/06/28 08:24:29;;;;;;;5.93;5.20;;;;;;;;;;9948890;28;20039;-55
2023/06/28 08:29:22;;;;;;;6.80;5.07;;;;;;;;;;9947514;28;20178;-55
2023/06/28 08:34:13;;;;;;;4.75;4.35;;;;;;;;;;9975389;28;20047;-55
2023/06/28 08:39:05;;;;;;;6.50;4.70;;;;;;;;;;9964999;28;20368;-54
2023/06/28 08:44:01;;;;;;;5.32;4.55;;;;;;;;;;9943021;28;20531;-55
2023/06/28 08:48:54;;;;;;;7.63;5.15;;;;;;;;;;9970380;28;20062;-54
2023/06/28 08:53:48;;;;;;;5.70;5.20;;;;;;;;;;9948887;28;20076;-48
2023/06/28 08:58:41;;;;;;;5.95;5.00;;;;;;;;;;9952490;28;20070;-47
2023/06/28 09:03:36;;;;;;;4.82;4.43;;;;;;;;;;9949579;28;20039;-49
2023/06/28 09:08:28;;;;;;;6.75;5.30;;;;;;;;;;9952584;28;20047;-52
2023/06/28 09:13:20;;;;;;;13.95;5.65;;;;;;;;;;9930829;28;20081;-49
2023/06/28 09:18:12;;;;;;;5.78;5.07;;;;;;;;;;9942528;28;20177;-48
2023/06/28 09:23:04;;;;;;;11.60;6.03;;;;;;;;;;9940536;28;20188;-48
2023/06/28 09:27:57;;;;;;;4.82;4.43;;;;;;;;;;9948370;28;20081;-52
2023/06/28 09:33:07;;;;;;;7.78;5.97;;;;;;;;;;9953602;28;20050;-54
2023/06/28 09:38:04;;;;;;;8.55;7.65;;;;;;;;;;9944183;28;20488;-55
2023/06/28 09:42:56;;;;;;;8.50;5.85;;;;;;;;;;9941409;28;20043;-55
2023/06/28 09:47:57;;;;;;;6.75;6.05;;;;;;;;;;9939337;28;20035;-55
2023/06/28 09:52:49;;;;;;;10.30;6.82;;;;;;;;;;9921874;28;20094;-55
2023/06/28 09:57:42;;;;;;;7.07;6.03;;;;;;;;;;9941900;28;20448;-54
2023/06/28 10:02:34;;;;;;;10.35;7.65;;;;;;;;;;9951663;28;20061;-55
2023/06/28 10:07:26;;;;;;;11.77;8.02;;;;;;;;;;9945724;28;20038;-55
2023/06/28 10:12:20;;;;;;;8.05;7.25;;;;;;;;;;9956217;28;20079;-54
2023/06/28 10:17:12;;;;;;;8.88;7.38;;;;;;;;;;9949383;28;20381;-49
2023/06/28 10:22:05;;;;;;;9.57;6.93;;;;;;;;;;9951024;28;20121;-52
2023/06/28 10:26:59;;;;;;;8.23;7.43;;;;;;;;;;9934917;28;20058;-56
2023/06/28 10:31:51;;;;;;;8.48;7.68;;;;;;;;;;9929846;28;20421;-54
2023/06/28 10:36:43;;;;;;;11.98;7.72;;;;;;;;;;9932993;28;20485;-54
2023/06/28 10:41:35;;;;;;;10.77;7.78;;;;;;;;;;9932527;28;20039;-55
2023/06/28 10:46:27;;;;;;;11.00;10.00;;;;;;;;;;9933245;28;20121;-55
2023/06/28 10:51:23;;;;;;;11.93;7.90;;;;;;;;;;9935819;28;20051;-54
2023/06/28 10:56:18;;;;;;;11.80;8.50;;;;;;;;;;9926804;28;20046;-49
2023/06/28 11:01:11;;;;;;;11.18;8.93;;;;;;;;;;9940431;28;20093;-49
2023/06/28 11:06:03;;;;;;;9.27;8.32;;;;;;;;;;9934901;28;20092;-50
2023/06/28 11:10:55;;;;;;;13.82;9.80;;;;;;;;;;9933976;28;20039;-51
2023/06/28 11:15:47;;;;;;;16.67;11.15;;;;;;;;;;9935637;28;20051;-54
2023/06/28 11:20:57;;;;;;;16.55;10.57;;;;;;;;;;9945325;28;20055;-53
2023/06/28 11:26:00;;;;;;;11.02;9.93;;;;;;;;;;9947630;28;20050;-54
2023/06/28 11:30:54;;;;;;;11.60;10.40;;;;;;;;;;9951635;28;20046;-54
2023/06/28 11:35:46;;;;;;;17.25;10.48;;;;;;;;;;9963048;28;20043;-54
2023/06/28 11:40:38;;;;;;;12.55;11.25;;;;;;;;;;9963550;28;20070;-53
2023/06/28 11:45:32;;;;;;;12.93;9.80;;;;;;;;;;9945446;28;20097;-53
2023/06/28 11:50:24;;;;;;;16.35;10.65;;;;;;;;;;9946429;28;20047;-54
2023/06/28 11:55:16;;;;;;;16.23;11.77;;;;;;;;;;9946264;28;20047;-54
2023/06/28 12:00:09;;;;;;;13.60;11.02;;;;;;;;;;9944917;28;20046;-55
2023/06/28 12:05:05;;;;;;;12.60;10.52;;;;;;;;;;9916429;28;20125;-54
2023/06/28 12:09:59;;;;;;;12.25;10.70;;;;;;;;;;9950083;28;20047;-50
2023/06/28 12:14:51;;;;;;;12.25;10.73;;;;;;;;;;9944651;28;20098;-54
2023/06/28 12:19:44;;;;;;;11.13;9.73;;;;;;;;;;9942045;28;20123;-54
2023/06/28 12:24:36;;;;;;;10.98;9.88;;;;;;;;;;9943213;28;20051;-52
2023/06/28 12:29:31;;;;;;;11.13;10.02;;;;;;;;;;9945627;28;20082;-54
2023/06/28 12:34:27;;;;;;;12.10;10.88;;;;;;;;;;9943390;28;20043;-55
2023/06/28 12:39:26;;;;;;;11.00;9.90;;;;;;;;;;9930126;28;20035;-54
2023/06/28 12:44:18;;;;;;;11.07;10.00;;;;;;;;;;9957860;28;20092;-52
2023/06/28 12:49:10;;;;;;;12.77;10.43;;;;;;;;;;9941653;28;20063;-53
2023/06/28 12:54:02;;;;;;;11.10;10.00;;;;;;;;;;9945950;28;20507;-54
2023/06/28 12:58:54;;;;;;;13.75;10.07;;;;;;;;;;9945685;28;20042;-55
2023/06/28 13:03:51;;;;;;;11.77;10.27;;;;;;;;;;9932168;28;20062;-54
2023/06/28 13:08:43;;;;;;;14.90;11.30;;;;;;;;;;9946070;28;20057;-55
2023/06/28 13:13:35;;;;;;;12.00;9.48;;;;;;;;;;9947668;28;20065;-55
2023/06/28 13:18:28;;;;;;;13.27;9.93;;;;;;;;;;9939038;28;20098;-55
2023/06/28 13:23:20;;;;;;;11.52;10.35;;;;;;;;;;9935387;28;20445;-54
2023/06/28 13:28:12;;;;;;;16.35;8.68;;;;;;;;;;9939710;28;20377;-54
2023/06/28 13:33:04;;;;;;;11.00;9.98;;;;;;;;;;9944546;28;20382;-54
2023/06/28 13:37:56;;;;;;;12.57;8.90;;;;;;;;;;9946066;28;20053;-54
2023/06/28 13:42:47;;;;;;;13.82;9.75;;;;;;;;;;9943096;28;20047;-54
2023/06/28 13:47:39;;;;;;;9.63;8.63;;;;;;;;;;9942503;28;20046;-54
2023/06/28 13:52:31;;;;;;;9.60;8.60;;;;;;;;;;9925256;28;20441;-55
2023/06/28 13:57:24;;;;;;;10.70;9.23;;;;;;;;;;9941223;28;20051;-54
2023/06/28 14:02:16;;;;;;;9.57;8.68;;;;;;;;;;9935490;28;20078;-55
2023/06/28 14:07:08;;;;;;;10.13;9.23;;;;;;;;;;9943056;28;20090;-54
2023/06/28 14:12:01;;;;;;;9.57;7.78;;;;;;;;;;9945756;28;20504;-53
2023/06/28 14:16:52;;;;;;;13.10;8.82;;;;;;;;;;9943642;28;20547;-53
2023/06/28 14:21:44;;;;;;;9.98;8.20;;;;;;;;;;9950229;28;20617;-55
2023/06/28 14:26:36;;;;;;;9.52;8.52;;;;;;;;;;9950858;28;20133;-54
2023/06/28 14:31:29;;;;;;;10.55;8.15;;;;;;;;;;9951390;28;20050;-55
2023/06/28 14:36:21;;;;;;;9.73;8.52;;;;;;;;;;9949681;28;20050;-54
2023/06/28 14:41:12;;;;;;;9.90;8.25;;;;;;;;;;9950835;28;20054;-54
2023/06/28 14:46:04;;;;;;;8.77;7.85;;;;;;;;;;9925761;28;20062;-55
2023/06/28 14:50:56;;;;;;;9.25;8.32;;;;;;;;;;9950744;28;20046;-54
2023/06/28 14:55:48;;;;;;;13.00;8.30;;;;;;;;;;9949589;28;20145;-55
2023/06/28 15:00:40;;;;;;;8.52;7.72;;;;;;;;;;9943441;28;20102;-54
2023/06/28 15:05:32;;;;;;;8.77;7.32;;;;;;;;;;9921700;28;20044;-54
2023/06/28 15:10:25;;;;;;;8.25;7.45;;;;;;;;;;9939248;28;20047;-56
2023/06/28 15:15:17;;;;;;;8.25;7.50;;;;;;;;;;9946733;28;20057;-55
2023/06/28 15:20:09;;;;;;;9.85;8.18;;;;;;;;;;9945941;28;20047;-54
2023/06/28 15:25:02;;;;;;;11.15;7.68;;;;;;;;;;9943831;28;20052;-53
2023/06/28 15:29:56;;;;;;;8.85;7.60;;;;;;;;;;9925741;28;20425;-53
2023/06/28 15:34:48;;;;;;;9.20;7.60;;;;;;;;;;9924503;28;20559;-52
2023/06/28 15:39:40;;;;;;;9.38;7.40;;;;;;;;;;9931451;28;20051;-55
2023/06/28 15:44:32;;;;;;;7.05;6.45;;;;;;;;;;9945781;28;20062;-53
2023/06/28 15:49:24;;;;;;;9.75;7.40;;;;;;;;;;9947575;28;20054;-53
2023/06/28 15:54:15;;;;;;;9.18;6.50;;;;;;;;;;9930947;28;20374;-53
2023/06/28 15:59:07;;;;;;;8.23;6.82;;;;;;;;;;9936881;28;20071;-54
2023/06/28 16:03:59;;;;;;;10.20;6.43;;;;;;;;;;9942691;28;20051;-55
2023/06/28 16:08:51;;;;;;;11.13;7.10;;;;;;;;;;9948795;28;20047;-54
2023/06/28 16:13:43;;;;;;;7.63;6.65;;;;;;;;;;9947352;28;20047;-54
2023/06/28 16:18:35;;;;;;;12.85;8.20;;;;;;;;;;9946088;28;20070;-54
2023/06/28 16:23:27;;;;;;;8.95;6.88;;;;;;;;;;9947473;28;20101;-54
2023/06/28 16:28:19;;;;;;;7.72;6.47;;;;;;;;;;9947275;28;20455;-54
2023/06/28 16:33:11;;;;;;;7.57;5.85;;;;;;;;;;9946207;28;20049;-55
2023/06/28 16:38:03;;;;;;;8.38;6.63;;;;;;;;;;9947224;28;20113;-53
2023/06/28 16:42:55;;;;;;;6.45;5.32;;;;;;;;;;9946867;28;20051;-54
2023/06/28 16:47:47;;;;;;;7.97;5.95;;;;;;;;;;9948392;28;20074;-54
2023/06/28 16:52:39;;;;;;;7.13;5.45;;;;;;;;;;9948279;28;20051;-53
2023/06/28 16:57:32;;;;;;;7.22;5.22;;;;;;;;;;9948390;28;20142;-53
2023/06/28 17:02:24;;;;;;;9.07;5.93;;;;;;;;;;9945799;28;20035;-54
2023/06/28 17:07:16;;;;;;;5.75;4.82;;;;;;;;;;9946795;28;20061;-54
2023/06/28 17:12:08;;;;;;;8.00;5.57;;;;;;;;;;9947197;28;20049;-53
2023/06/28 17:17:00;;;;;;;8.70;5.32;;;;;;;;;;9948660;28;20050;-55
2023/06/28 17:21:53;;;;;;;7.40;5.45;;;;;;;;;;9941219;28;20051;-53
2023/06/28 17:26:45;;;;;;;5.78;4.85;;;;;;;;;;9945753;28;20054;-54
2023/06/28 17:31:37;;;;;;;7.97;4.68;;;;;;;;;;9948702;28;20070;-50
2023/06/28 17:36:29;;;;;;;7.85;4.88;;;;;;;;;;9947229;28;20055;-54
2023/06/28 17:41:21;;;;;;;7.40;4.47;;;;;;;;;;9955616;28;20501;-54
2023/06/28 17:46:13;;;;;;;7.85;4.40;;;;;;;;;;9964102;28;20046;-51
2023/06/28 17:51:07;;;;;;;10.20;4.65;;;;;;;;;;9957319;28;20082;-54
2023/06/28 17:55:59;;;;;;;13.68;5.72;;;;;;;;;;9954302;28;20192;-48
2023/06/28 18:00:51;;;;;;;16.27;5.28;;;;;;;;;;9955107;28;20400;-57
2023/06/28 18:05:43;;;;;;;5.15;4.32;;;;;;;;;;9947983;28;20145;-57
2023/06/28 18:10:35;;;;;;;7.72;4.97;;;;;;;;;;9948124;28;20422;-57
2023/06/28 18:15:27;;;;;;;10.48;5.13;;;;;;;;;;9938898;28;20515;-57
2023/06/28 18:20:19;;;;;;;7.45;4.45;;;;;;;;;;9956640;28;20129;-57
2023/06/28 18:25:13;;;;;;;10.27;4.55;;;;;;;;;;9983889;28;20524;-57
2023/06/28 18:30:05;;;;;;;7.40;3.97;;;;;;;;;;9973665;28;20369;-57
2023/06/28 18:34:57;;;;;;;8.52;4.88;;;;;;;;;;9960426;28;20050;-57
2023/06/28 18:39:49;;;;;;;7.10;4.95;;;;;;;;;;9960094;28;20050;-57
2023/06/28 18:44:43;;;;;;;5.80;4.03;;;;;;;;;;9966030;28;20038;-57
2023/06/28 18:49:35;;;;;;;6.28;4.38;;;;;;;;;;9959655;28;20669;-57
2023/06/28 18:54:28;;;;;;;5.13;4.25;;;;;;;;;;9959006;28;20043;-57
2023/06/28 18:59:20;;;;;;;9.00;4.80;;;;;;;;;;9974155;28;20050;-57
2023/06/28 19:04:12;;;;;;;6.10;4.45;;;;;;;;;;9954853;28;20362;-57
2023/06/28 19:09:04;;;;;;;4.80;4.25;;;;;;;;;;9956180;28;20134;-57
2023/06/28 19:13:56;;;;;;;7.22;3.90;;;;;;;;;;9939415;28;20073;-57
2023/06/28 19:18:48;;;;;;;7.15;4.35;;;;;;;;;;9947818;28;20047;-55
2023/06/28 19:23:40;;;;;;;15.25;4.15;;;;;;;;;;9953910;28;20050;-49
2023/06/28 19:28:32;;;;;;;7.18;4.22;;;;;;;;;;9966796;28;20035;-56
2023/06/28 19:33:24;;;;;;;5.32;3.75;;;;;;;;;;9943858;28;20042;-58
2023/06/28 19:38:16;;;;;;;12.32;4.55;;;;;;;;;;9947511;28;20157;-53
2023/06/28 19:43:08;;;;;;;8.02;4.63;;;;;;;;;;9948339;28;20031;-52
2023/06/28 19:55:42;;;;;;;13.70;4.75;;;;;;;;;;10023902;28;20455;-86
2023/06/28 20:00:37;;;;;;;12.23;4.27;;;;;;;;;;9982724;28;20489;-86
2023/06/28 20:05:31;;;;;;;8.82;4.20;;;;;;;;;;9983981;28;20058;-85
2023/06/28 20:10:26;;;;;;;7.20;3.83;;;;;;;;;;9981500;28;20517;-85
2023/06/28 20:15:23;;;;;;;7.07;4.75;;;;;;;;;;9980025;28;20109;-86
2023/06/28 20:20:18;;;;;;;7.00;4.22;;;;;;;;;;9977530;28;20054;-87
2023/06/28 20:25:12;;;;;;;12.35;4.57;;;;;;;;;;9976294;28;20120;-87
2023/06/28 20:30:09;;;;;;;12.63;5.55;;;;;;;;;;9998199;28;20077;-86
2023/06/28 20:35:06;;;;;;;12.35;5.40;;;;;;;;;;10024430;28;20042;-86
2023/06/28 20:40:01;;;;;;;10.02;4.50;;;;;;;;;;10053304;28;20064;-86
2023/06/28 20:44:56;;;;;;;15.15;5.63;;;;;;;;;;10046020;28;20072;-86
2023/06/28 20:49:50;;;;;;;11.40;4.75;;;;;;;;;;10046984;28;20073;-87
2023/06/28 20:54:44;;;;;;;7.15;4.40;;;;;;;;;;10046485;28;20051;-86
2023/06/28 20:59:38;;;;;;;8.10;4.38;;;;;;;;;;10041358;28;20049;-86
2023/06/28 21:04:32;;;;;;;15.27;5.90;;;;;;;;;;10044795;28;20111;-87
2023/06/28 21:09:27;;;;;;;11.55;4.45;;;;;;;;;;10054068;28;20393;-86
2023/06/28 21:14:21;;;;;;;5.55;4.35;;;;;;;;;;10044953;28;20069;-86
2023/06/28 21:19:16;;;;;;;14.60;5.25;;;;;;;;;;10028592;28;20508;-87
2023/06/28 21:24:12;;;;;;;10.35;3.83;;;;;;;;;;10061057;28;20131;-87
2023/06/28 21:29:07;;;;;;;13.07;4.93;;;;;;;;;;10051133;28;20049;-87
2023/06/28 21:34:01;;;;;;;8.30;3.80;;;;;;;;;;10043863;28;20069;-86
2023/06/28 21:38:55;;;;;;;10.77;4.43;;;;;;;;;;10029781;28;20045;-86
2023/06/28 21:43:48;;;;;;;6.30;4.15;;;;;;;;;;10030503;28;20505;-88
2023/06/28 21:48:57;;;;;;;;;;;;;;;;;;10025950;28;20046;-87
2023/06/28 21:53:52;;;;;;;8.50;4.82;;;;;;;;;;10026670;28;19992;-91
2023/06/28 21:58:46;;;;;;;12.90;4.68;;;;;;;;;;10031960;28;20129;-89
2023/06/28 22:03:40;;;;;;;7.43;4.68;;;;;;;;;;10021722;28;20054;-90
2023/06/28 22:08:35;;;;;;;6.38;4.20;;;;;;;;;;10036371;28;20089;-90
2023/06/28 22:13:29;;;;;;;10.57;4.40;;;;;;;;;;10050504;28;20045;-90
2023/06/28 22:18:24;;;;;;;7.03;4.00;;;;;;;;;;10045933;28;20046;-91
2023/06/28 22:23:20;;;;;;;13.10;4.38;;;;;;;;;;10037619;28;20056;-86
2023/06/28 22:28:14;;;;;;;8.60;4.40;;;;;;;;;;10033512;28;20057;-87
2023/06/28 22:33:08;;;;;;;8.48;3.85;;;;;;;;;;10016999;28;20050;-87
2023/06/28 22:38:03;;;;;;;7.78;3.97;;;;;;;;;;10027550;28;20466;-86
2023/06/28 22:42:59;;;;;;;8.50;4.18;;;;;;;;;;10036285;28;20128;-86
2023/06/28 22:47:55;;;;;;;22.65;5.82;;;;;;;;;;10023491;28;20116;-86
2023/06/28 22:52:50;;;;;;;19.77;4.07;;;;;;;;;;10024617;28;20394;-86
2023/06/28 22:57:44;;;;;;;7.35;3.80;;;;;;;;;;10024802;28;20392;-87
2023/06/28 23:02:38;;;;;;;6.82;3.40;;;;;;;;;;10025642;28;20733;-86
2023/06/28 23:07:33;;;;;;;4.55;3.75;;;;;;;;;;10025840;28;20056;-87
2023/06/28 23:12:31;;;;;;;7.72;5.03;;;;;;;;;;10024123;28;20060;-86
2023/06/28 23:17:25;;;;;;;7.20;3.60;;;;;;;;;;10022018;28;20053;-86
2023/06/28 23:22:20;;;;;;;5.38;3.67;;;;;;;;;;10016381;28;20057;-86
2023/06/28 23:27:13;;;;;;;5.85;3.53;;;;;;;;;;10023993;28;20049;-86
2023/06/28 23:32:08;;;;;;;6.88;3.55;;;;;;;;;;10035924;28;20049;-87
2023/06/28 23:37:01;;;;;;;6.38;4.15;;;;;;;;;;10038069;28;20076;-85
2023/06/28 23:41:57;;;;;;;4.93;3.55;;;;;;;;;;10033635;28;20465;-87
2023/06/28 23:46:56;;;;;;;5.45;3.88;;;;;;;;;;10022845;28;20523;-86
2023/06/28 23:51:49;;;;;;;5.30;4.07;;;;;;;;;;10023481;28;20489;-86
2023/06/28 23:56:44;;;;;;;5.03;3.38;;;;;;;;;;10024250;28;20041;-87
